createdAt,value
2022-10-17T00:00:47.537Z,101241.38
2022-10-17T00:03:15.478Z,101239.72
2022-10-17T00:05:44.114Z,101243.47
2022-10-17T00:08:12.440Z,101241.59
2022-10-17T00:10:40.556Z,101245.16
2022-10-17T00:13:08.723Z,101239.91
2022-10-17T00:15:36.879Z,101238.03
2022-10-17T00:18:06.199Z,101239.91
2022-10-17T00:20:36.255Z,101245.38
2022-10-17T00:23:04.290Z,101242.63
2022-10-17T00:25:32.468Z,101233.66
2022-10-17T00:28:00.425Z,101242.63
2022-10-17T00:30:28.269Z,101242.63
2022-10-17T00:32:56.150Z,101236.38
2022-10-17T00:35:26.260Z,101237.19
2022-10-17T00:37:54.110Z,101234.72
2022-10-17T00:40:21.974Z,101249.16
2022-10-17T00:42:51.318Z,101250.00
2022-10-17T00:45:23.042Z,101255.47
2022-10-17T00:47:53.682Z,101262.78
2022-10-17T00:50:21.738Z,101251.91
2022-10-17T00:52:50.963Z,101251.91
2022-10-17T00:55:21.019Z,101236.41
2022-10-17T00:57:48.859Z,101255.66
2022-10-17T01:00:16.996Z,101246.66
2022-10-17T01:02:45.019Z,101249.38
2022-10-17T01:05:13.229Z,101248.34
2022-10-17T01:07:41.148Z,101245.59
2022-10-17T01:10:10.826Z,101236.38
2022-10-17T01:12:56.540Z,101235.56
2022-10-17T01:15:30.581Z,101243.72
2022-10-17T01:18:05.331Z,101250.81
2022-10-17T01:21:08.397Z,101252.72
2022-10-17T01:24:18.109Z,101248.34
2022-10-17T01:26:59.094Z,101242.88
2022-10-17T01:30:05.379Z,101248.53
2022-10-17T01:32:38.282Z,101257.56
2022-10-17T01:35:10.568Z,101249.38
2022-10-17T01:37:41.332Z,101254.00
2022-10-17T01:40:11.373Z,101242.47
2022-10-17T01:42:40.939Z,101251.28
2022-10-17T01:45:11.343Z,101245.81
2022-10-17T01:47:40.567Z,101236.81
2022-10-17T01:50:11.936Z,101240.56
2022-10-17T01:52:41.164Z,101228.63
2022-10-17T01:55:10.399Z,101222.34
2022-10-17T01:57:39.999Z,101228.63
2022-10-17T02:00:11.188Z,101220.66
2022-10-17T02:02:40.740Z,101225.91
2022-10-17T02:05:09.485Z,101209.75
2022-10-17T02:07:37.350Z,101196.97
2022-10-17T02:10:05.902Z,101202.22
2022-10-17T02:12:39.209Z,101202.44
2022-10-17T02:15:22.740Z,101193.25
2022-10-17T02:17:54.977Z,101207.88
2022-10-17T02:20:25.030Z,101209.75
2022-10-17T02:22:55.534Z,101203.25
2022-10-17T02:25:28.870Z,101213.13
2022-10-17T02:27:57.893Z,101207.66
2022-10-17T02:30:30.465Z,101180.50
2022-10-17T02:33:01.004Z,101208.50
2022-10-17T02:35:30.671Z,101206.63
2022-10-17T02:37:58.640Z,101208.28
2022-10-17T02:40:26.508Z,101199.50
2022-10-17T02:42:54.410Z,101211.03
2022-10-17T02:45:22.614Z,101209.34
2022-10-17T02:47:53.249Z,101208.50
2022-10-17T02:50:24.258Z,101206.84
2022-10-17T02:52:53.721Z,101211.44
2022-10-17T02:55:23.561Z,101182.41
2022-10-17T02:57:52.418Z,101209.56
2022-10-17T03:00:20.482Z,101216.06
2022-10-17T03:02:49.166Z,101217.94
2022-10-17T03:05:19.582Z,101210.59
2022-10-17T03:07:48.882Z,101223.19
2022-10-17T03:10:16.894Z,101224.22
2022-10-17T03:12:44.761Z,101216.91
2022-10-17T03:15:13.791Z,101219.41
2022-10-17T03:17:41.765Z,101221.28
2022-10-17T03:20:10.240Z,101216.06
2022-10-17T03:22:38.118Z,101219.41
2022-10-17T03:25:08.416Z,101223.56
2022-10-17T03:27:36.294Z,101218.34
2022-10-17T03:30:04.295Z,101219.41
2022-10-17T03:32:34.185Z,101219.84
2022-10-17T03:35:02.373Z,101220.25
2022-10-17T03:37:30.553Z,101227.59
2022-10-17T03:39:58.725Z,101229.47
2022-10-17T03:42:28.033Z,101226.94
2022-10-17T03:44:56.163Z,101224.00
2022-10-17T03:47:24.025Z,101227.59
2022-10-17T03:49:53.536Z,101224.00
2022-10-17T03:52:21.418Z,101230.31
2022-10-17T03:54:49.281Z,101235.13
2022-10-17T03:57:17.143Z,101230.50
2022-10-17T03:59:46.368Z,101243.09
2022-10-17T04:02:14.237Z,101243.09
2022-10-17T04:04:42.375Z,101242.03
2022-10-17T04:07:10.189Z,101246.66
2022-10-17T04:09:38.009Z,101243.94
2022-10-17T04:12:06.148Z,101243.72
2022-10-17T04:14:34.377Z,101250.22
2022-10-17T04:17:03.627Z,101250.22
2022-10-17T04:19:31.484Z,101244.78
2022-10-17T04:21:59.326Z,101244.78
2022-10-17T04:24:27.855Z,101254.84
2022-10-17T04:26:55.801Z,101265.53
2022-10-17T04:29:23.678Z,101259.22
2022-10-17T04:31:52.317Z,101261.97
2022-10-17T04:34:21.899Z,101254.84
2022-10-17T04:36:49.783Z,101253.78
2022-10-17T04:39:17.644Z,101248.34
2022-10-17T04:41:45.634Z,101231.00
2022-10-17T04:44:13.995Z,101243.72
2022-10-17T04:46:41.886Z,101247.28
2022-10-17T04:49:09.888Z,101251.28
2022-10-17T04:51:39.165Z,101263.63
2022-10-17T04:54:07.428Z,101254.63
2022-10-17T04:56:35.377Z,101261.13
2022-10-17T04:59:03.249Z,101252.94
2022-10-17T05:01:31.201Z,101258.41
2022-10-17T05:03:59.688Z,101256.72
2022-10-17T05:06:28.722Z,101263.84
2022-10-17T05:08:58.750Z,101267.63
2022-10-17T05:11:27.274Z,101269.28
2022-10-17T05:13:56.204Z,101267.41
2022-10-17T05:16:24.367Z,101263.00
2022-10-17T05:18:53.208Z,101268.25
2022-10-17T05:21:21.404Z,101265.72
2022-10-17T05:23:49.607Z,101265.53
2022-10-17T05:26:19.028Z,101265.53
2022-10-17T05:28:46.974Z,101261.13
2022-10-17T05:31:15.082Z,101260.06
2022-10-17T05:33:42.943Z,101268.25
2022-10-17T05:36:10.841Z,101273.69
2022-10-17T05:38:38.732Z,101271.81
2022-10-17T05:41:06.867Z,101272.84
2022-10-17T05:43:36.161Z,101276.44
2022-10-17T05:46:05.207Z,101295.25
2022-10-17T05:48:33.023Z,101293.81
2022-10-17T05:51:01.078Z,101294.66
2022-10-17T05:53:31.530Z,101291.94
2022-10-17T05:55:59.520Z,101280.19
2022-10-17T06:01:16.818Z,101274.53
2022-10-17T06:03:44.651Z,101287.31
2022-10-17T06:06:13.313Z,101285.66
2022-10-17T06:08:41.248Z,101153.75
2022-10-17T06:11:10.317Z,101294.66
2022-10-17T06:13:38.654Z,101301.78
2022-10-17T06:16:06.951Z,101307.25
2022-10-17T06:18:36.227Z,101318.13
2022-10-17T06:21:04.564Z,101319.19
2022-10-17T06:23:32.439Z,101329.84
2022-10-17T06:26:01.020Z,101322.75
2022-10-17T06:28:29.038Z,101330.94
2022-10-17T06:30:56.960Z,101340.16
2022-10-17T06:33:24.820Z,101341.00
2022-10-17T06:35:54.608Z,101347.47
2022-10-17T06:38:22.573Z,101350.22
2022-10-17T06:40:50.423Z,101350.22
2022-10-17T06:43:18.281Z,101354.81
2022-10-17T06:45:47.455Z,101352.94
2022-10-17T06:48:15.596Z,101350.41
2022-10-17T06:50:43.493Z,101355.66
2022-10-17T06:53:12.761Z,101352.94
2022-10-17T06:55:40.948Z,101343.72
2022-10-17T06:58:08.803Z,101349.38
2022-10-17T07:00:36.716Z,101363.00
2022-10-17T07:03:04.743Z,101366.56
2022-10-17T07:05:32.860Z,101374.75
2022-10-17T07:08:00.741Z,101374.75
2022-10-17T07:10:29.998Z,101374.75
2022-10-17T07:12:57.871Z,101380.19
2022-10-17T07:15:26.060Z,101379.34
2022-10-17T07:17:53.962Z,101386.69
2022-10-17T07:20:21.811Z,101378.50
2022-10-17T07:22:49.704Z,101379.34
2022-10-17T07:25:17.901Z,101382.91
2022-10-17T07:27:47.194Z,101385.63
2022-10-17T07:30:15.077Z,101384.78
2022-10-17T07:32:43.261Z,101386.47
2022-10-17T07:35:11.230Z,101391.94
2022-10-17T07:37:39.127Z,101386.47
2022-10-17T07:40:08.036Z,101380.41
2022-10-17T07:45:12.591Z,101392.97
2022-10-17T07:47:40.469Z,101385.00
2022-10-17T07:50:09.200Z,101376.81
2022-10-17T07:52:37.040Z,101387.72
2022-10-17T07:55:05.882Z,101387.53
2022-10-17T07:57:33.747Z,101392.97
2022-10-17T08:00:01.616Z,101391.09
2022-10-17T08:02:31.190Z,101387.53
2022-10-17T08:04:59.452Z,101388.38
2022-10-17T08:07:29.414Z,101387.53
2022-10-17T08:09:57.580Z,101396.53
2022-10-17T08:12:26.194Z,101402.81
2022-10-17T08:14:54.109Z,101402.00
2022-10-17T08:17:22.036Z,101402.00
2022-10-17T08:19:51.260Z,101405.56
2022-10-17T08:22:19.110Z,101403.88
2022-10-17T08:24:47.343Z,101419.19
2022-10-17T08:27:15.243Z,101424.63
2022-10-17T08:29:43.155Z,101423.78
2022-10-17T08:32:11.091Z,101424.63
2022-10-17T08:34:39.216Z,101431.97
2022-10-17T08:37:08.516Z,101436.56
2022-10-17T08:39:36.460Z,101437.41
2022-10-17T08:42:18.764Z,101441.19
2022-10-17T08:44:51.073Z,101451.88
2022-10-17T08:47:22.217Z,101450.84
2022-10-17T08:49:52.459Z,101456.50
2022-10-17T08:52:32.717Z,101459.22
2022-10-17T08:55:00.752Z,101463.81
2022-10-17T08:57:29.793Z,101468.22
2022-10-17T08:59:57.877Z,101469.47
2022-10-17T09:02:37.133Z,101466.56
2022-10-17T09:05:30.771Z,101463.81
2022-10-17T09:08:04.535Z,101456.69
2022-10-17T09:10:37.651Z,101434.28
2022-10-17T09:13:11.383Z,101456.69
2022-10-17T09:15:44.456Z,101460.06
2022-10-17T09:18:13.703Z,101470.13
2022-10-17T09:20:43.229Z,101436.41
2022-10-17T09:23:14.652Z,101477.44
2022-10-17T09:25:44.128Z,101492.75
2022-10-17T09:28:15.119Z,101499.25
2022-10-17T09:30:45.641Z,101490.03
2022-10-17T09:33:23.323Z,101492.75
2022-10-17T09:36:03.272Z,101494.66
2022-10-17T09:38:38.132Z,101500.94
2022-10-17T09:41:15.933Z,101500.09
2022-10-17T09:43:48.205Z,101499.25
2022-10-17T09:46:21.381Z,101499.25
2022-10-17T09:48:53.307Z,101504.72
2022-10-17T09:51:25.956Z,101501.97
2022-10-17T09:53:58.034Z,101472.84
2022-10-17T09:56:25.879Z,101512.03
2022-10-17T09:58:54.689Z,101512.03
2022-10-17T10:01:24.667Z,101512.03
2022-10-17T10:04:10.574Z,101530.06
2022-10-17T10:06:38.534Z,101516.44
2022-10-17T10:09:08.008Z,101519.19
2022-10-17T10:11:48.990Z,101529.22
2022-10-17T10:14:21.820Z,101530.06
2022-10-17T10:16:49.975Z,101528.41
2022-10-17T10:19:22.347Z,101533.84
2022-10-17T10:21:56.945Z,101537.41
2022-10-17T10:24:30.784Z,101532.81
2022-10-17T10:26:59.697Z,101534.88
2022-10-17T10:29:30.961Z,101538.25
2022-10-17T10:32:00.103Z,101535.53
2022-10-17T10:34:30.062Z,101540.13
2022-10-17T10:37:00.446Z,101539.09
2022-10-17T10:39:40.053Z,101547.28
2022-10-17T10:42:09.543Z,101546.41
2022-10-17T10:44:37.821Z,101557.31
2022-10-17T10:47:24.071Z,101564.47
2022-10-17T10:49:52.682Z,101570.13
2022-10-17T10:52:30.576Z,101581.66
2022-10-17T10:55:06.358Z,101575.34
2022-10-17T10:57:35.016Z,101581.84
2022-10-17T11:00:09.010Z,101588.16
2022-10-17T11:02:38.725Z,101589.00
2022-10-17T11:05:12.231Z,101582.69
2022-10-17T11:07:41.792Z,101588.16
2022-10-17T11:10:13.473Z,101586.47
2022-10-17T11:15:19.520Z,101543.06
2022-10-17T11:17:51.877Z,101534.47
2022-10-17T11:20:22.575Z,101546.44
2022-10-17T11:22:51.030Z,101551.03
2022-10-17T11:25:29.847Z,101578.28
2022-10-17T11:28:00.949Z,101576.41
2022-10-17T11:30:40.685Z,101587.31
2022-10-17T11:33:08.571Z,101590.03
2022-10-17T11:35:38.771Z,101591.06
2022-10-17T11:38:14.889Z,101583.94
2022-10-17T11:40:46.180Z,101591.91
2022-10-17T11:43:16.012Z,101583.75
2022-10-17T11:45:45.887Z,101585.81
2022-10-17T11:48:14.940Z,101588.34
2022-10-17T11:53:35.729Z,101592.13
2022-10-17T11:56:05.042Z,101592.75
2022-10-17T11:58:38.515Z,101528.19
2022-10-17T12:01:11.361Z,101597.38
2022-10-17T12:03:49.621Z,101592.56
2022-10-17T12:06:25.844Z,101604.50
2022-10-17T12:08:59.538Z,101610.78
2022-10-17T12:11:35.772Z,101621.69
2022-10-17T12:14:05.847Z,101613.53
2022-10-17T12:16:48.795Z,101615.41
2022-10-17T12:19:30.762Z,101616.25
2022-10-17T12:22:00.444Z,101614.56
2022-10-17T12:24:43.471Z,101612.69
2022-10-17T12:27:47.477Z,101611.00
2022-10-17T12:30:20.848Z,101605.75
2022-10-17T12:33:06.183Z,101601.56
2022-10-17T12:35:36.985Z,101602.41
2022-10-17T12:38:21.969Z,101613.31
2022-10-17T12:40:54.790Z,101593.97
2022-10-17T12:43:48.513Z,101616.88
2022-10-17T12:46:44.134Z,101620.63
2022-10-17T12:49:39.550Z,101619.59
2022-10-17T12:52:29.803Z,101640.13
2022-10-17T12:55:17.786Z,101638.25
2022-10-17T12:57:53.287Z,101640.97
2022-10-17T13:00:26.586Z,101644.53
2022-10-17T13:02:55.934Z,101564.84
2022-10-17T13:05:29.429Z,101623.75
2022-10-17T13:07:57.747Z,101646.41
2022-10-17T13:13:06.387Z,101648.72
2022-10-17T13:15:35.725Z,101658.16
2022-10-17T13:18:03.630Z,101660.88
2022-10-17T13:20:32.155Z,101668.03
2022-10-17T13:23:00.800Z,101667.00
2022-10-17T13:25:29.069Z,101674.31
2022-10-17T13:28:08.458Z,101666.16
2022-10-17T13:30:37.766Z,101675.16
2022-10-17T13:33:05.669Z,101673.47
2022-10-17T13:35:58.973Z,101685.22
2022-10-17T13:38:26.708Z,101686.25
2022-10-17T13:41:01.672Z,101686.25
2022-10-17T13:43:34.147Z,101690.88
2022-10-17T13:46:25.345Z,101698.00
2022-10-17T13:48:53.630Z,101694.44
2022-10-17T13:51:21.563Z,101690.88
2022-10-17T13:53:49.705Z,101687.31
2022-10-17T13:56:28.964Z,101691.72
2022-10-17T13:58:58.545Z,101698.22
2022-10-17T14:01:29.224Z,101689.16
2022-10-17T14:04:08.357Z,101697.38
2022-10-17T14:06:36.634Z,101691.91
2022-10-17T14:09:06.164Z,101693.78
2022-10-17T14:11:35.716Z,101695.69
2022-10-17T14:14:04.850Z,101692.94
2022-10-17T14:16:38.490Z,101692.09
2022-10-17T14:19:08.458Z,101682.88
2022-10-17T14:21:44.413Z,101692.94
2022-10-17T14:24:14.250Z,101687.50
2022-10-17T14:26:49.395Z,101695.69
2022-10-17T14:29:23.655Z,101692.94
2022-10-17T14:31:58.840Z,101703.00
2022-10-17T14:34:29.425Z,101713.72
2022-10-17T14:36:57.340Z,101711.84
2022-10-17T14:39:26.017Z,101724.81
2022-10-17T14:41:53.996Z,101719.38
2022-10-17T14:44:24.361Z,101731.09
2022-10-17T14:46:55.816Z,101735.53
2022-10-17T14:49:29.437Z,101741.81
2022-10-17T14:52:31.240Z,101740.34
2022-10-17T14:55:00.036Z,101744.72
2022-10-17T14:57:35.631Z,101753.13
2022-10-17T15:00:03.737Z,101752.06
2022-10-17T15:02:33.467Z,101747.69
2022-10-17T15:05:01.594Z,101759.19
2022-10-17T15:07:29.484Z,101754.78
2022-10-17T15:09:57.338Z,101753.97
2022-10-17T15:12:26.060Z,101752.06
2022-10-17T15:14:54.324Z,101757.53
2022-10-17T15:17:23.092Z,101769.50
2022-10-17T15:19:52.358Z,101764.88
2022-10-17T15:22:20.581Z,101768.66
2022-10-17T15:24:48.730Z,101772.22
2022-10-17T15:27:17.585Z,101767.59
2022-10-17T15:29:45.498Z,101758.38
2022-10-17T15:32:13.447Z,101763.63
2022-10-17T15:34:41.646Z,101757.31
2022-10-17T15:37:17.281Z,101759.84
2022-10-17T15:39:45.858Z,101777.25
2022-10-17T15:42:13.753Z,101787.94
2022-10-17T15:44:44.274Z,101802.41
2022-10-17T15:47:15.284Z,101812.25
2022-10-17T15:49:43.168Z,101820.44
2022-10-17T15:52:12.767Z,101817.94
2022-10-17T15:54:40.804Z,101826.09
2022-10-17T15:57:10.271Z,101820.66
2022-10-17T15:59:38.133Z,101828.59
2022-10-17T16:02:09.515Z,101834.06
2022-10-17T16:04:37.698Z,101831.31
2022-10-17T16:07:07.396Z,101838.28
2022-10-17T16:09:37.331Z,101851.06
2022-10-17T16:12:06.166Z,101861.97
2022-10-17T16:14:34.375Z,101866.75
2022-10-17T16:17:02.218Z,101868.44
2022-10-17T16:19:30.791Z,101866.75
2022-10-17T16:22:03.664Z,101881.22
2022-10-17T16:24:32.764Z,101883.13
2022-10-17T16:27:01.993Z,101886.91
2022-10-17T16:29:30.166Z,101886.06
2022-10-17T16:31:58.327Z,101881.66
2022-10-17T16:34:26.231Z,101890.69
2022-10-17T16:36:54.103Z,101895.28
2022-10-17T16:39:22.169Z,101889.00
2022-10-17T16:41:52.530Z,101887.09
2022-10-17T16:44:24.119Z,101883.53
2022-10-17T16:46:52.092Z,101875.34
2022-10-17T16:49:19.985Z,101884.38
2022-10-17T16:51:47.843Z,101888.16
2022-10-17T16:54:15.993Z,101891.91
2022-10-17T16:56:43.979Z,101906.19
2022-10-17T16:59:12.141Z,101906.00
2022-10-17T17:01:41.712Z,101912.47
2022-10-17T17:04:10.026Z,101915.22
2022-10-17T17:06:38.018Z,101915.00
2022-10-17T17:09:05.950Z,101912.28
2022-10-17T17:11:33.840Z,101922.13
2022-10-17T17:14:02.575Z,101924.22
2022-10-17T17:16:31.315Z,101927.38
2022-10-17T17:19:01.283Z,101924.47
2022-10-17T17:21:29.215Z,101924.25
2022-10-17T17:23:58.285Z,101926.97
2022-10-17T17:26:26.535Z,101926.16
2022-10-17T17:28:55.220Z,101929.69
2022-10-17T17:31:25.233Z,101930.75
2022-10-17T17:33:53.379Z,101924.25
2022-10-17T17:36:23.409Z,101925.94
2022-10-17T17:38:51.621Z,101915.88
2022-10-17T17:41:20.170Z,101919.63
2022-10-17T17:43:48.464Z,101922.34
2022-10-17T17:46:18.101Z,101917.13
2022-10-17T17:48:46.731Z,101916.28
2022-10-17T17:51:15.430Z,101916.28
2022-10-17T17:53:44.718Z,101917.31
2022-10-17T17:56:15.169Z,101921.75
2022-10-17T17:58:45.653Z,101926.16
2022-10-17T18:01:17.888Z,101926.97
2022-10-17T18:03:45.891Z,101926.97
2022-10-17T18:06:13.831Z,101937.06
2022-10-17T18:08:41.702Z,101937.06
2022-10-17T18:11:11.025Z,101934.53
2022-10-17T18:13:38.926Z,101935.38
2022-10-17T18:16:13.186Z,101946.28
2022-10-17T18:18:41.977Z,101949.84
2022-10-17T18:21:09.857Z,101959.06
2022-10-17T18:23:39.562Z,101951.72
2022-10-17T18:26:07.921Z,101962.63
2022-10-17T18:28:37.431Z,101966.38
2022-10-17T18:31:07.090Z,101969.09
2022-10-17T18:33:34.990Z,101966.38
2022-10-17T18:36:07.375Z,101967.63
2022-10-17T18:38:35.318Z,101972.88
2022-10-17T18:41:04.592Z,101967.22
2022-10-17T18:43:34.298Z,101973.91
2022-10-17T18:46:12.395Z,101974.31
2022-10-17T18:48:43.128Z,101977.72
2022-10-17T18:51:11.044Z,101978.75
2022-10-17T18:53:40.428Z,101978.94
2022-10-17T18:56:08.967Z,101984.19
2022-10-17T18:58:37.624Z,101992.38
2022-10-17T19:01:07.470Z,101985.03
2022-10-17T19:03:35.782Z,101984.19
2022-10-17T19:06:04.093Z,101983.16
2022-10-17T19:08:32.057Z,101991.34
2022-10-17T19:11:06.000Z,101991.34
2022-10-17T19:13:34.268Z,101996.56
2022-10-17T19:16:05.454Z,101998.25
2022-10-17T19:18:34.809Z,102003.50
2022-10-17T19:21:03.392Z,101999.75
2022-10-17T19:23:31.774Z,102006.00
2022-10-17T19:26:03.624Z,102007.50
2022-10-17T19:28:31.649Z,102008.34
2022-10-17T19:30:59.594Z,102010.06
2022-10-17T19:35:58.671Z,102018.00
2022-10-17T19:38:26.543Z,102018.84
2022-10-17T19:40:54.476Z,102017.81
2022-10-17T19:43:22.565Z,102023.06
2022-10-17T19:45:56.899Z,102010.06
2022-10-17T19:48:25.234Z,102010.06
2022-10-17T19:50:53.284Z,102015.50
2022-10-17T19:53:23.729Z,102022.66
2022-10-17T19:55:52.460Z,102009.88
2022-10-17T19:58:20.694Z,102021.63
2022-10-17T20:00:48.670Z,102024.34
2022-10-17T20:03:16.562Z,102023.31
2022-10-17T20:05:44.784Z,102015.97
2022-10-17T20:08:12.842Z,102018.06
2022-10-17T20:10:42.108Z,102018.50
2022-10-17T20:13:10.074Z,102024.78
2022-10-17T20:15:38.303Z,102031.91
2022-10-17T20:18:06.497Z,102027.91
2022-10-17T20:20:35.242Z,102035.69
2022-10-17T20:23:03.162Z,102030.22
2022-10-17T20:25:33.367Z,102035.69
2022-10-17T20:28:02.824Z,102039.25
2022-10-17T20:30:30.820Z,102033.63
2022-10-17T20:32:58.753Z,102023.75
2022-10-17T20:35:26.872Z,102029.59
2022-10-17T20:37:54.724Z,102041.78
2022-10-17T20:40:34.669Z,102039.91
2022-10-17T20:43:07.032Z,102042.63
2022-10-17T20:45:50.660Z,102049.13
2022-10-17T20:48:19.833Z,102061.91
2022-10-17T20:50:47.747Z,102062.13
2022-10-17T20:53:35.926Z,102060.44
2022-10-17T20:56:05.013Z,102058.34
2022-10-17T20:58:34.292Z,102045.78
2022-10-17T21:01:06.698Z,102043.06
2022-10-17T21:03:37.831Z,102040.31
2022-10-17T21:06:09.460Z,102037.78
2022-10-17T21:08:37.305Z,102030.66
2022-10-17T21:11:09.884Z,102031.69
2022-10-17T21:13:39.255Z,102032.53
2022-10-17T21:16:08.868Z,102036.28
2022-10-17T21:18:36.792Z,102034.81
2022-10-17T21:21:11.342Z,102040.91
2022-10-17T21:23:39.653Z,102042.78
2022-10-17T21:26:09.410Z,102043.63
2022-10-17T21:28:38.987Z,102043.63
2022-10-17T21:31:15.682Z,102042.78
2022-10-17T21:33:45.952Z,102048.22
2022-10-17T21:36:16.346Z,102049.31
2022-10-17T21:38:44.390Z,102051.19
2022-10-17T21:41:13.877Z,102053.06
2022-10-17T21:43:43.340Z,102048.47
2022-10-17T21:46:12.793Z,102025.06
2022-10-17T21:48:40.662Z,102046.75
2022-10-17T21:51:10.751Z,102054.94
2022-10-17T21:53:38.611Z,102051.38
2022-10-17T21:56:08.828Z,102052.41
2022-10-17T21:58:37.241Z,102049.69
2022-10-17T22:01:08.750Z,102053.44
2022-10-17T22:03:37.154Z,102059.75
2022-10-17T22:06:34.564Z,102054.28
2022-10-17T22:08:53.482Z,102056.41
2022-10-17T22:11:22.332Z,102060.81
2022-10-17T22:13:54.538Z,102057.25
2022-10-17T22:16:23.813Z,102068.16
2022-10-17T22:18:51.634Z,102069.19
2022-10-17T22:21:20.821Z,102075.47
2022-10-17T22:23:57.098Z,102072.75
2022-10-17T22:26:24.978Z,102071.91
2022-10-17T22:28:52.861Z,102072.09
2022-10-17T22:31:20.740Z,102072.09
2022-10-17T22:33:50.307Z,102082.16
2022-10-17T22:36:18.178Z,102081.13
2022-10-17T22:38:46.039Z,102069.38
2022-10-17T22:41:13.928Z,102076.50
2022-10-17T22:43:41.775Z,102070.22
2022-10-17T22:46:12.901Z,102074.81
2022-10-17T22:48:40.830Z,102076.50
2022-10-17T22:51:10.290Z,102083.66
2022-10-17T22:53:38.212Z,102088.25
2022-10-17T22:56:07.597Z,102081.13
2022-10-17T22:58:35.840Z,102077.53
2022-10-17T23:01:03.859Z,102075.66
2022-10-17T23:03:32.329Z,102072.09
2022-10-17T23:06:00.523Z,102062.22
2022-10-17T23:08:29.754Z,102065.81
2022-10-17T23:10:57.712Z,102063.25
2022-10-17T23:13:25.571Z,102066.84
2022-10-17T23:15:53.973Z,102063.25
2022-10-17T23:18:22.386Z,102063.25
2022-10-17T23:20:50.339Z,102068.72
2022-10-17T23:23:18.276Z,102070.63
2022-10-17T23:25:47.821Z,102073.34
2022-10-17T23:28:15.752Z,102072.50
2022-10-17T23:30:43.580Z,102077.13
2022-10-17T23:33:11.949Z,102077.13
2022-10-17T23:35:40.091Z,102077.13
2022-10-17T23:38:07.946Z,102079.84
2022-10-17T23:40:35.937Z,102079.84
2022-10-17T23:43:05.274Z,102072.69
2022-10-17T23:45:36.111Z,102077.31
2022-10-17T23:48:05.524Z,102080.03
2022-10-17T23:50:33.361Z,102074.56
2022-10-17T23:53:01.258Z,102077.31
2022-10-17T23:55:29.554Z,102080.88
2022-10-17T23:57:57.433Z,102075.41
